Time;durP1;ratioP1;P1;durP2;ratioP2;P2;SDS_P1;SDS_P2;PMS_P1;PMS_P2;Temp;Humidity;BMP_temperature;BMP_pressure;BME280_temperature;BME280_humidity;BME280_pressure;Samples;Min_cycle;Max_cycle;Signal;HPM_P1;HPM_P2
2022/05/03 00:01:57;;;;;;;22.45;21.15;;;;;;;;;;5048695;28;20596;-63
2022/05/03 00:04:27;;;;;;;21.25;20.05;;;;;;;;;;5047454;28;20028;-64
2022/05/03 00:07:00;;;;;;;20.17;19.02;;;;;;;;;;5050204;28;20033;-64
2022/05/03 00:09:37;;;;;;;16.98;15.98;;;;;;;;;;5048394;28;20486;-64
2022/05/03 00:12:04;;;;;;;21.05;19.85;;;;;;;;;;5050311;28;20060;-64
2022/05/03 00:14:36;;;;;;;21.60;20.40;;;;;;;;;;5049403;28;20044;-65
2022/05/03 00:17:04;;;;;;;19.70;18.55;;;;;;;;;;5049470;28;20052;-64
2022/05/03 00:19:29;;;;;;;22.42;21.13;;;;;;;;;;5047988;28;20021;-65
2022/05/03 00:21:55;;;;;;;21.42;20.23;;;;;;;;;;5049833;28;20355;-64
2022/05/03 00:24:21;;;;;;;20.20;19.10;;;;;;;;;;5047641;28;20044;-64
2022/05/03 00:26:47;;;;;;;21.23;20.02;;;;;;;;;;5048187;28;20084;-65
2022/05/03 00:29:14;;;;;;;25.13;23.67;;;;;;;;;;5050638;28;20047;-64
2022/05/03 00:31:40;;;;;;;19.98;18.88;;;;;;;;;;5051857;28;20089;-65
2022/05/03 00:34:05;;;;;;;22.35;21.05;;;;;;;;;;5050371;28;20059;-64
2022/05/03 00:36:31;;;;;;;23.10;21.80;;;;;;;;;;5050131;28;20509;-64
2022/05/03 00:38:57;;;;;;;20.27;19.17;;;;;;;;;;5049256;28;20037;-64
2022/05/03 00:41:48;;;;;;;20.27;19.08;;;;;;;;;;5049565;28;20061;-64
2022/05/03 00:47:40;;;;;;;22.17;20.70;;;;;;;;;;5050065;28;20040;-64
2022/05/03 00:50:08;;;;;;;18.10;17.00;;;;;;;;;;5049991;28;21565;-65
2022/05/03 00:52:42;;;;;;;17.63;16.63;;;;;;;;;;5049451;28;20052;-64
2022/05/03 00:55:43;;;;;;;20.00;18.80;;;;;;;;;;5049935;28;20252;-65
2022/05/03 00:58:42;;;;;;;20.52;19.35;;;;;;;;;;5018158;28;20124;-64
2022/05/03 01:01:34;;;;;;;19.23;18.13;;;;;;;;;;5050548;28;20063;-65
2022/05/03 01:04:10;;;;;;;19.70;18.50;;;;;;;;;;5048066;28;20040;-64
2022/05/03 01:07:02;;;;;;;20.55;19.35;;;;;;;;;;5048714;28;20075;-65
2022/05/03 01:09:38;;;;;;;18.23;17.17;;;;;;;;;;5048889;28;20055;-66
2022/05/03 01:12:17;;;;;;;21.85;20.55;;;;;;;;;;5049718;28;20549;-65
2022/05/03 01:15:09;;;;;;;19.67;18.58;;;;;;;;;;5049069;28;20029;-66
2022/05/03 01:17:54;;;;;;;20.42;19.13;;;;;;;;;;5057820;28;20025;-65
2022/05/03 01:20:33;;;;;;;19.58;18.38;;;;;;;;;;5051890;28;20906;-65
2022/05/03 01:23:29;;;;;;;18.98;17.90;;;;;;;;;;5051542;28;20037;-65
2022/05/03 01:26:27;;;;;;;19.98;18.88;;;;;;;;;;5054177;28;20029;-65
2022/05/03 01:29:01;;;;;;;19.40;18.30;;;;;;;;;;5052526;28;21030;-65
2022/05/03 01:31:27;;;;;;;18.75;17.73;;;;;;;;;;5053170;28;20028;-65
2022/05/03 01:33:59;;;;;;;20.17;19.08;;;;;;;;;;5052068;28;20041;-66
2022/05/03 01:36:43;;;;;;;22.63;21.30;;;;;;;;;;5053129;28;20036;-65
2022/05/03 01:39:21;;;;;;;23.85;21.90;;;;;;;;;;5052502;28;20128;-66
2022/05/03 01:41:51;;;;;;;21.35;20.15;;;;;;;;;;5052551;28;20028;-65
2022/05/03 01:44:38;;;;;;;22.05;20.85;;;;;;;;;;5053854;28;20040;-65
2022/05/03 01:47:25;;;;;;;19.55;18.45;;;;;;;;;;5053317;28;20029;-65
2022/05/03 01:50:18;;;;;;;21.33;20.13;;;;;;;;;;5052136;28;20689;-65
2022/05/03 01:53:15;;;;;;;21.50;20.30;;;;;;;;;;5053289;28;20059;-65
2022/05/03 01:56:11;;;;;;;20.23;19.13;;;;;;;;;;5052381;28;20610;-65
2022/05/03 01:59:06;;;;;;;18.77;17.75;;;;;;;;;;5046571;28;20515;-64
2022/05/03 02:01:47;;;;;;;20.05;18.95;;;;;;;;;;5051953;28;21076;-64
2022/05/03 02:04:18;;;;;;;;;;;;;;;;;;5053294;28;20652;-64
2022/05/03 02:06:54;;;;;;;16.92;15.93;;;;;;;;;;5050826;28;20258;-64
2022/05/03 02:09:30;;;;;;;19.77;18.67;;;;;;;;;;5050692;28;20041;-64
2022/05/03 02:12:13;;;;;;;21.17;19.92;;;;;;;;;;5051044;28;20086;-64
2022/05/03 02:14:54;;;;;;;20.15;18.98;;;;;;;;;;5053245;28;20036;-64
2022/05/03 02:17:29;;;;;;;19.80;18.70;;;;;;;;;;5050518;28;20048;-65
2022/05/03 02:20:31;;;;;;;19.42;18.33;;;;;;;;;;5050563;28;20039;-64
2022/05/03 02:23:20;;;;;;;19.77;18.65;;;;;;;;;;5051987;28;20131;-64
2022/05/03 02:26:11;;;;;;;20.98;19.77;;;;;;;;;;5051761;28;20105;-65
2022/05/03 02:28:55;;;;;;;18.15;17.15;;;;;;;;;;5048396;28;20053;-65
2022/05/03 02:31:30;;;;;;;20.83;19.63;;;;;;;;;;5052141;28;20032;-65
2022/05/03 02:34:03;;;;;;;20.48;19.35;;;;;;;;;;5051746;28;20032;-64
2022/05/03 02:36:35;;;;;;;17.52;16.52;;;;;;;;;;5051524;28;20537;-65
2022/05/03 02:39:05;;;;;;;21.67;20.38;;;;;;;;;;5050666;28;20032;-65
2022/05/03 02:41:36;;;;;;;18.75;17.67;;;;;;;;;;5051708;28;20044;-65
2022/05/03 02:44:02;;;;;;;18.83;17.75;;;;;;;;;;5050347;28;20453;-65
2022/05/03 02:46:56;;;;;;;21.00;19.67;;;;;;;;;;5052892;28;20037;-65
2022/05/03 02:49:32;;;;;;;19.90;18.80;;;;;;;;;;5049216;28;20422;-66
2022/05/03 02:52:13;;;;;;;19.52;18.38;;;;;;;;;;5049586;28;20087;-65
2022/05/03 02:55:03;;;;;;;17.88;16.88;;;;;;;;;;5051319;28;20037;-65
2022/05/03 02:57:53;;;;;;;19.15;18.05;;;;;;;;;;5050031;28;20032;-65
2022/05/03 03:03:46;;;;;;;17.38;16.38;;;;;;;;;;5057164;28;20760;-64
2022/05/03 03:06:23;;;;;;;17.95;16.88;;;;;;;;;;5036942;28;20154;-65
2022/05/03 03:08:54;;;;;;;18.73;17.63;;;;;;;;;;5050188;28;20047;-65
2022/05/03 03:11:22;;;;;;;;;;;;;;;;;;5050012;28;20057;-65
2022/05/03 03:14:12;;;;;;;16.95;15.93;;;;;;;;;;5051302;28;19920;-65
2022/05/03 03:16:46;;;;;;;16.20;15.20;;;;;;;;;;5050086;28;20063;-64
2022/05/03 03:19:34;;;;;;;15.10;14.20;;;;;;;;;;5049673;28;20098;-65
2022/05/03 03:22:01;;;;;;;18.70;17.50;;;;;;;;;;5050563;28;20139;-65
2022/05/03 03:24:29;;;;;;;19.23;18.13;;;;;;;;;;5050781;28;20117;-64
2022/05/03 03:26:55;;;;;;;18.50;17.40;;;;;;;;;;5051911;28;20548;-65
2022/05/03 03:29:22;;;;;;;14.10;13.20;;;;;;;;;;5048949;28;20024;-66
2022/05/03 03:31:49;;;;;;;19.90;18.80;;;;;;;;;;5049386;28;20125;-65
2022/05/03 03:34:15;;;;;;;16.27;15.23;;;;;;;;;;5052134;28;20040;-65
2022/05/03 03:36:43;;;;;;;17.00;16.00;;;;;;;;;;5050857;28;20036;-66
2022/05/03 03:39:08;;;;;;;19.50;18.40;;;;;;;;;;5051651;28;20131;-65
2022/05/03 03:41:34;;;;;;;21.25;20.05;;;;;;;;;;5051884;28;20111;-65
2022/05/03 03:43:59;;;;;;;16.67;15.48;;;;;;;;;;5050802;28;20104;-65
2022/05/03 03:46:25;;;;;;;18.45;17.38;;;;;;;;;;5039653;28;20048;-66
2022/05/03 03:48:50;;;;;;;17.35;16.35;;;;;;;;;;5052400;28;20049;-66
2022/05/03 03:51:16;;;;;;;16.58;15.68;;;;;;;;;;5048486;28;20044;-66
2022/05/03 03:53:41;;;;;;;16.52;15.30;;;;;;;;;;5048651;28;20045;-65
2022/05/03 03:56:07;;;;;;;15.55;14.65;;;;;;;;;;5048809;28;20105;-67
2022/05/03 03:58:33;;;;;;;23.30;20.95;;;;;;;;;;5048304;28;20024;-65
2022/05/03 04:00:59;;;;;;;16.02;15.02;;;;;;;;;;5051258;28;20074;-66
2022/05/03 04:03:26;;;;;;;17.27;16.27;;;;;;;;;;5052625;28;20498;-65
2022/05/03 04:05:51;;;;;;;15.13;14.23;;;;;;;;;;5050115;28;20025;-66
2022/05/03 04:08:17;;;;;;;15.60;14.70;;;;;;;;;;5054571;28;20378;-66
2022/05/03 04:10:43;;;;;;;18.17;17.08;;;;;;;;;;5047677;28;20032;-66
2022/05/03 04:13:13;;;;;;;15.52;14.60;;;;;;;;;;5048697;28;20055;-67
2022/05/03 04:15:39;;;;;;;15.65;14.75;;;;;;;;;;5045389;28;20032;-68
2022/05/03 04:18:07;;;;;;;17.30;16.30;;;;;;;;;;5049521;28;20049;-67
2022/05/03 04:20:34;;;;;;;15.57;14.68;;;;;;;;;;5049694;28;20506;-67
2022/05/03 04:22:59;;;;;;;16.25;15.32;;;;;;;;;;5066184;28;20119;-67
2022/05/03 04:25:25;;;;;;;15.73;14.73;;;;;;;;;;5051294;28;20107;-67
2022/05/03 04:27:50;;;;;;;15.15;14.15;;;;;;;;;;5052839;28;20044;-68
2022/05/03 04:30:15;;;;;;;17.33;16.33;;;;;;;;;;5048327;28;20105;-67
2022/05/03 04:32:41;;;;;;;13.27;12.43;;;;;;;;;;5050191;28;20066;-67
2022/05/03 04:35:06;;;;;;;14.82;13.93;;;;;;;;;;5049706;28;20032;-67
2022/05/03 04:37:32;;;;;;;13.55;12.75;;;;;;;;;;5048165;28;20037;-67
2022/05/03 04:39:57;;;;;;;15.20;14.30;;;;;;;;;;5048479;28;20085;-67
2022/05/03 04:42:23;;;;;;;13.43;12.52;;;;;;;;;;5049120;28;20024;-68
2022/05/03 04:44:48;;;;;;;11.85;10.80;;;;;;;;;;5049703;28;20060;-67
2022/05/03 04:47:14;;;;;;;15.60;14.70;;;;;;;;;;5049070;28;20033;-65
2022/05/03 04:49:39;;;;;;;15.38;14.48;;;;;;;;;;5048340;28;20040;-67
2022/05/03 04:52:05;;;;;;;12.18;11.32;;;;;;;;;;5046466;28;20709;-66
2022/05/03 04:54:30;;;;;;;12.93;12.07;;;;;;;;;;5057796;28;20795;-66
2022/05/03 04:57:05;;;;;;;12.27;11.48;;;;;;;;;;5047622;28;20064;-67
2022/05/03 04:59:31;;;;;;;12.82;12.02;;;;;;;;;;5053376;28;20037;-67
2022/05/03 05:01:56;;;;;;;14.20;13.40;;;;;;;;;;5050324;28;20059;-67
2022/05/03 05:04:22;;;;;;;13.80;12.90;;;;;;;;;;5048634;28;20037;-67
2022/05/03 05:06:47;;;;;;;14.07;13.27;;;;;;;;;;5049392;28;20465;-67
2022/05/03 05:09:12;;;;;;;16.75;15.60;;;;;;;;;;5050891;28;20479;-66
2022/05/03 05:11:38;;;;;;;14.57;13.68;;;;;;;;;;5050337;28;20035;-67
2022/05/03 05:14:03;;;;;;;15.35;14.45;;;;;;;;;;5050658;28;20041;-66
2022/05/03 05:16:28;;;;;;;14.98;14.07;;;;;;;;;;5050225;28;20029;-66
2022/05/03 05:18:54;;;;;;;12.27;11.52;;;;;;;;;;5051124;28;20090;-66
2022/05/03 05:21:19;;;;;;;13.00;12.10;;;;;;;;;;5050462;28;20033;-68
2022/05/03 05:23:45;;;;;;;13.65;12.75;;;;;;;;;;5050157;28;20039;-66
2022/05/03 05:26:11;;;;;;;13.18;12.27;;;;;;;;;;5053018;28;20111;-66
2022/05/03 05:28:37;;;;;;;12.88;12.07;;;;;;;;;;5054320;28;20112;-66
2022/05/03 05:31:02;;;;;;;13.65;12.85;;;;;;;;;;5050064;28;20614;-66
2022/05/03 05:33:27;;;;;;;12.88;12.07;;;;;;;;;;5049040;28;20175;-66
2022/05/03 05:35:53;;;;;;;13.85;12.75;;;;;;;;;;5050070;28;20463;-67
2022/05/03 05:38:19;;;;;;;14.80;13.90;;;;;;;;;;5052238;28;20071;-67
2022/05/03 05:40:46;;;;;;;12.73;11.85;;;;;;;;;;5048217;28;20523;-67
2022/05/03 05:43:12;;;;;;;13.07;12.27;;;;;;;;;;5049367;28;20043;-67
2022/05/03 05:45:38;;;;;;;12.48;11.68;;;;;;;;;;5050432;28;20037;-67
2022/05/03 05:48:05;;;;;;;11.50;10.77;;;;;;;;;;5054055;28;20063;-67
2022/05/03 05:50:30;;;;;;;13.07;12.27;;;;;;;;;;5047421;28;20051;-67
2022/05/03 05:55:42;;;;;;;14.63;13.73;;;;;;;;;;5050465;28;20383;-67
2022/05/03 05:58:08;;;;;;;15.07;14.07;;;;;;;;;;5053678;28;20045;-67
2022/05/03 06:00:34;;;;;;;15.82;14.38;;;;;;;;;;5052740;28;20053;-66
2022/05/03 06:02:59;;;;;;;14.98;14.07;;;;;;;;;;5052062;28;20064;-66
2022/05/03 06:05:25;;;;;;;14.65;13.75;;;;;;;;;;5049531;28;20047;-67
2022/05/03 06:07:52;;;;;;;17.30;16.30;;;;;;;;;;5047940;28;20628;-67
2022/05/03 06:10:18;;;;;;;16.83;15.85;;;;;;;;;;5056640;28;20474;-68
2022/05/03 06:12:44;;;;;;;16.63;15.52;;;;;;;;;;5055181;28;20060;-67
2022/05/03 06:15:10;;;;;;;18.52;17.38;;;;;;;;;;5054339;28;20083;-68
2022/05/03 06:17:35;;;;;;;19.02;17.92;;;;;;;;;;5052826;28;20033;-67
2022/05/03 06:20:00;;;;;;;18.90;17.80;;;;;;;;;;5055404;28;20155;-67
2022/05/03 06:22:26;;;;;;;19.52;18.33;;;;;;;;;;5053907;28;20621;-67
2022/05/03 06:24:52;;;;;;;21.52;20.23;;;;;;;;;;5054043;28;20602;-67
2022/05/03 06:27:17;;;;;;;22.55;21.30;;;;;;;;;;5054684;28;20037;-67
2022/05/03 06:29:43;;;;;;;22.92;21.52;;;;;;;;;;5053353;28;20032;-67
2022/05/03 06:32:10;;;;;;;21.95;20.65;;;;;;;;;;5051196;28;20036;-68
2022/05/03 06:34:37;;;;;;;23.05;21.75;;;;;;;;;;5051518;28;20085;-68
2022/05/03 06:37:03;;;;;;;21.15;19.95;;;;;;;;;;5051106;28;20060;-67
2022/05/03 06:39:29;;;;;;;28.05;26.30;;;;;;;;;;5052469;28;20029;-66
2022/05/03 06:41:54;;;;;;;22.08;20.88;;;;;;;;;;5055147;28;20090;-67
2022/05/03 06:44:20;;;;;;;20.65;19.52;;;;;;;;;;5055231;28;20462;-68
2022/05/03 06:46:45;;;;;;;26.23;24.63;;;;;;;;;;5053801;28;20029;-67
2022/05/03 06:49:10;;;;;;;26.88;25.33;;;;;;;;;;5052726;28;20120;-67
2022/05/03 06:51:37;;;;;;;28.25;26.73;;;;;;;;;;5063222;28;20072;-67
2022/05/03 06:54:02;;;;;;;27.05;25.55;;;;;;;;;;5056845;28;20032;-68
2022/05/03 06:56:28;;;;;;;27.60;26.10;;;;;;;;;;5054594;28;20106;-66
2022/05/03 06:58:53;;;;;;;25.98;24.55;;;;;;;;;;5056810;28;20635;-67
2022/05/03 07:01:18;;;;;;;29.35;27.73;;;;;;;;;;5053587;28;20048;-67
2022/05/03 07:03:44;;;;;;;27.17;25.73;;;;;;;;;;5057243;28;20041;-67
2022/05/03 07:06:10;;;;;;;24.85;23.48;;;;;;;;;;5052393;28;20039;-68
2022/05/03 07:08:36;;;;;;;30.67;28.80;;;;;;;;;;5053178;28;20025;-67
2022/05/03 07:11:02;;;;;;;22.90;21.63;;;;;;;;;;5055082;28;20690;-67
2022/05/03 07:13:28;;;;;;;26.13;24.65;;;;;;;;;;5054572;28;20115;-67
2022/05/03 07:15:55;;;;;;;32.72;30.98;;;;;;;;;;5057148;28;20439;-67
2022/05/03 07:23:49;;;;;;;13.98;12.75;;;;;;;;;;5049780;28;20043;-67
2022/05/03 07:26:15;;;;;;;21.08;19.83;;;;;;;;;;5056308;28;20047;-67
2022/05/03 07:28:40;;;;;;;12.98;12.18;;;;;;;;;;5053744;28;20033;-67
2022/05/03 07:31:06;;;;;;;15.77;14.57;;;;;;;;;;5057250;28;20036;-67
2022/05/03 07:33:32;;;;;;;17.20;16.20;;;;;;;;;;5055173;28;20577;-66
2022/05/03 07:35:57;;;;;;;15.35;14.45;;;;;;;;;;5054036;28;20029;-67
2022/05/03 07:38:23;;;;;;;16.45;15.45;;;;;;;;;;5055340;28;20359;-66
2022/05/03 07:40:48;;;;;;;24.35;22.95;;;;;;;;;;5052371;28;20108;-67
2022/05/03 07:43:13;;;;;;;27.52;25.98;;;;;;;;;;5054414;28;20032;-66
2022/05/03 07:45:39;;;;;;;22.33;21.05;;;;;;;;;;5054050;28;20032;-67
2022/05/03 07:48:05;;;;;;;16.63;15.63;;;;;;;;;;5050926;28;20045;-67
2022/05/03 07:50:31;;;;;;;26.42;24.92;;;;;;;;;;5053392;28;20036;-66
2022/05/03 07:52:56;;;;;;;33.70;31.92;;;;;;;;;;5070536;28;20104;-67
2022/05/03 07:55:21;;;;;;;33.75;32.00;;;;;;;;;;5054011;28;20044;-67
2022/05/03 07:57:47;;;;;;;34.58;32.65;;;;;;;;;;5060032;28;20108;-67
2022/05/03 08:00:12;;;;;;;33.50;31.73;;;;;;;;;;5051460;28;20674;-68
2022/05/03 08:02:38;;;;;;;20.40;19.20;;;;;;;;;;5053332;28;20534;-67
2022/05/03 08:05:04;;;;;;;34.67;32.78;;;;;;;;;;5051796;28;20446;-66
2022/05/03 08:07:30;;;;;;;31.65;29.98;;;;;;;;;;5057099;28;20055;-66
2022/05/03 08:09:55;;;;;;;27.23;25.73;;;;;;;;;;5061333;28;20490;-66
2022/05/03 08:12:22;;;;;;;35.40;33.55;;;;;;;;;;5072705;28;20045;-64
2022/05/03 08:14:47;;;;;;;35.25;33.35;;;;;;;;;;5057420;28;20120;-64
2022/05/03 08:17:13;;;;;;;23.90;22.55;;;;;;;;;;5051882;28;20116;-65
2022/05/03 08:19:38;;;;;;;25.95;24.55;;;;;;;;;;5053361;28;20060;-66
2022/05/03 08:22:04;;;;;;;32.80;31.00;;;;;;;;;;5051628;28;20075;-66
2022/05/03 08:24:30;;;;;;;30.30;28.27;;;;;;;;;;5053202;28;20465;-65
2022/05/03 08:26:55;;;;;;;29.73;28.08;;;;;;;;;;5053364;28;20438;-65
2022/05/03 08:29:21;;;;;;;41.58;39.38;;;;;;;;;;5063256;28;20041;-67
2022/05/03 08:31:46;;;;;;;26.48;25.05;;;;;;;;;;5056398;28;20119;-67
2022/05/03 08:34:13;;;;;;;13.93;13.07;;;;;;;;;;5054074;28;20469;-65
2022/05/03 08:36:38;;;;;;;13.05;12.25;;;;;;;;;;5052340;28;20106;-66
2022/05/03 08:42:07;;;;;;;11.63;10.93;;;;;;;;;;5051008;28;20055;-67
2022/05/03 08:44:34;;;;;;;28.23;26.73;;;;;;;;;;5052212;28;20043;-67
2022/05/03 08:47:02;;;;;;;10.38;9.57;;;;;;;;;;5055943;28;20119;-67
2022/05/03 08:49:39;;;;;;;10.00;9.40;;;;;;;;;;5048350;28;20160;-66
2022/05/03 08:52:08;;;;;;;10.32;9.63;;;;;;;;;;5050758;28;20137;-66
2022/05/03 08:54:36;;;;;;;27.50;26.00;;;;;;;;;;5050397;28;20171;-67
2022/05/03 08:57:05;;;;;;;21.23;20.05;;;;;;;;;;5049706;28;20032;-67
2022/05/03 08:59:33;;;;;;;10.15;9.55;;;;;;;;;;5048762;28;20028;-65
2022/05/03 09:01:58;;;;;;;13.68;12.88;;;;;;;;;;5049666;28;20040;-66
2022/05/03 09:04:24;;;;;;;13.98;13.13;;;;;;;;;;5049419;28;20037;-66
2022/05/03 09:06:50;;;;;;;22.23;21.02;;;;;;;;;;5048365;28;20048;-66
2022/05/03 09:09:19;;;;;;;14.27;13.18;;;;;;;;;;5049474;28;20032;-67
2022/05/03 09:11:47;;;;;;;11.48;10.68;;;;;;;;;;5051284;28;20110;-67
2022/05/03 09:14:39;;;;;;;28.15;26.65;;;;;;;;;;5049538;28;20469;-66
2022/05/03 09:17:05;;;;;;;10.40;9.70;;;;;;;;;;5050207;28;20047;-66
2022/05/03 09:19:32;;;;;;;10.48;9.77;;;;;;;;;;5046820;28;20037;-66
2022/05/03 09:24:54;;;;;;;10.15;9.50;;;;;;;;;;5050100;28;20716;-66
2022/05/03 09:27:22;;;;;;;10.73;10.02;;;;;;;;;;5048137;28;20032;-66
2022/05/03 09:30:07;;;;;;;9.95;9.25;;;;;;;;;;5049565;28;20044;-66
2022/05/03 09:32:36;;;;;;;9.20;8.60;;;;;;;;;;5049955;28;20409;-66
2022/05/03 09:35:03;;;;;;;11.82;11.10;;;;;;;;;;5048830;28;20098;-65
2022/05/03 09:37:42;;;;;;;11.10;10.40;;;;;;;;;;5049336;28;20040;-66
2022/05/03 09:40:09;;;;;;;9.23;8.63;;;;;;;;;;5053657;28;20043;-65
2022/05/03 09:42:40;;;;;;;9.82;9.13;;;;;;;;;;5049689;28;20028;-63
2022/05/03 09:45:08;;;;;;;;;;;;;;;;;;5052642;28;20037;-65
2022/05/03 09:47:52;;;;;;;9.55;8.93;;;;;;;;;;5050547;28;19920;-65
2022/05/03 09:50:26;;;;;;;9.48;8.88;;;;;;;;;;5053374;28;20043;-65
2022/05/03 09:52:52;;;;;;;10.95;10.15;;;;;;;;;;5051142;28;20032;-66
2022/05/03 09:55:28;;;;;;;10.80;10.07;;;;;;;;;;5053462;28;20094;-65
2022/05/03 09:57:55;;;;;;;13.25;12.45;;;;;;;;;;5053715;28;20037;-66
2022/05/03 10:00:20;;;;;;;13.30;12.50;;;;;;;;;;5055916;28;20362;-66
2022/05/03 10:02:47;;;;;;;13.65;12.75;;;;;;;;;;5053324;28;20040;-65
2022/05/03 10:05:13;;;;;;;14.48;13.48;;;;;;;;;;5051283;28;20071;-66
2022/05/03 10:07:43;;;;;;;14.18;13.35;;;;;;;;;;5053073;28;20480;-66
2022/05/03 10:10:09;;;;;;;15.50;14.60;;;;;;;;;;5051838;28;20113;-66
2022/05/03 10:12:37;;;;;;;14.85;13.98;;;;;;;;;;5050412;28;20076;-65
2022/05/03 10:15:04;;;;;;;13.93;13.07;;;;;;;;;;5051809;28;20037;-64
2022/05/03 10:20:40;;;;;;;15.73;14.82;;;;;;;;;;5052308;28;20090;-65
2022/05/03 10:23:21;;;;;;;13.48;12.68;;;;;;;;;;5053835;28;20044;-64
2022/05/03 10:25:46;;;;;;;13.38;12.57;;;;;;;;;;5052325;28;20062;-65
2022/05/03 10:28:12;;;;;;;14.40;13.60;;;;;;;;;;5052092;28;20056;-66
2022/05/03 10:30:40;;;;;;;14.55;13.70;;;;;;;;;;5050195;28;20045;-66
2022/05/03 10:33:20;;;;;;;14.90;14.00;;;;;;;;;;5050703;28;20060;-65
2022/05/03 10:35:47;;;;;;;21.35;20.17;;;;;;;;;;5059292;28;20646;-65
2022/05/03 10:38:13;;;;;;;16.85;15.85;;;;;;;;;;5054110;28;20127;-66
2022/05/03 10:40:43;;;;;;;20.85;19.73;;;;;;;;;;5069231;28;20616;-65
2022/05/03 10:43:23;;;;;;;18.67;17.58;;;;;;;;;;5054287;28;20339;-65
2022/05/03 10:45:50;;;;;;;19.20;18.10;;;;;;;;;;5053752;28;20441;-64
2022/05/03 10:48:30;;;;;;;18.50;17.40;;;;;;;;;;5048342;28;20043;-65
2022/05/03 10:50:58;;;;;;;15.57;14.65;;;;;;;;;;5049931;28;20087;-65
2022/05/03 10:53:25;;;;;;;17.55;16.52;;;;;;;;;;5050903;28;20648;-65
2022/05/03 10:56:18;;;;;;;16.75;15.77;;;;;;;;;;5049621;28;20036;-62
2022/05/03 10:59:16;;;;;;;17.58;16.58;;;;;;;;;;5049092;28;20115;-64
2022/05/03 11:01:53;;;;;;;16.98;15.98;;;;;;;;;;5051653;28;20028;-64
2022/05/03 11:04:19;;;;;;;14.80;13.95;;;;;;;;;;5050431;28;20037;-66
2022/05/03 11:06:47;;;;;;;17.73;16.63;;;;;;;;;;5051184;28;20047;-64
2022/05/03 11:09:16;;;;;;;21.90;20.70;;;;;;;;;;5054517;28;20072;-66
2022/05/03 11:11:42;;;;;;;25.45;24.02;;;;;;;;;;5050632;28;20036;-66
2022/05/03 11:14:22;;;;;;;23.13;21.83;;;;;;;;;;5050901;28;20064;-66
2022/05/03 11:17:03;;;;;;;19.58;18.48;;;;;;;;;;5049707;28;20051;-66
2022/05/03 11:19:29;;;;;;;;;;;;;;;;;;5053397;28;20048;-67
2022/05/03 11:21:55;;;;;;;18.00;17.00;;;;;;;;;;5050433;28;19916;-66
2022/05/03 11:24:25;;;;;;;15.10;14.20;;;;;;;;;;5051451;28;20047;-65
2022/05/03 11:26:52;;;;;;;;;;;;;;;;;;5051782;28;20105;-65
2022/05/03 11:29:18;;;;;;;18.05;17.02;;;;;;;;;;5049928;28;19924;-66
2022/05/03 11:31:51;;;;;;;18.58;17.48;;;;;;;;;;5051403;28;20033;-66
2022/05/03 11:34:20;;;;;;;20.58;19.38;;;;;;;;;;5053642;28;20083;-65
2022/05/03 11:36:48;;;;;;;23.35;22.05;;;;;;;;;;5038318;28;20025;-66
2022/05/03 11:39:14;;;;;;;17.45;16.45;;;;;;;;;;5056069;28;20480;-65
2022/05/03 11:41:42;;;;;;;17.85;16.85;;;;;;;;;;5054655;28;20037;-66
2022/05/03 11:44:08;;;;;;;20.35;19.25;;;;;;;;;;5051233;28;20433;-67
2022/05/03 11:46:33;;;;;;;23.52;22.13;;;;;;;;;;5053854;28;20086;-67
2022/05/03 11:49:02;;;;;;;15.48;14.57;;;;;;;;;;5050633;28;20037;-66
2022/05/03 11:57:10;;;;;;;16.58;15.57;;;;;;;;;;5051373;28;20044;-61
2022/05/03 11:59:35;;;;;;;17.42;16.42;;;;;;;;;;5056400;28;20032;-62
2022/05/03 12:02:18;;;;;;;17.90;16.90;;;;;;;;;;5054606;28;20048;-63
2022/05/03 12:05:11;;;;;;;18.13;17.13;;;;;;;;;;5056463;28;20466;-63
2022/05/03 12:07:46;;;;;;;23.50;22.10;;;;;;;;;;5051673;28;20056;-67
2022/05/03 12:10:19;;;;;;;24.33;22.98;;;;;;;;;;5057361;28;20470;-67
2022/05/03 12:13:02;;;;;;;34.42;32.65;;;;;;;;;;5052750;28;20033;-65
2022/05/03 12:15:28;;;;;;;28.75;27.20;;;;;;;;;;5053387;28;20032;-68
2022/05/03 12:18:11;;;;;;;37.58;35.65;;;;;;;;;;5052071;28;20024;-67
2022/05/03 12:20:55;;;;;;;29.17;27.60;;;;;;;;;;5056283;28;20098;-67
2022/05/03 12:23:32;;;;;;;30.58;28.98;;;;;;;;;;5052284;28;20024;-67
2022/05/03 12:26:12;;;;;;;65.60;62.35;;;;;;;;;;5053749;28;20421;-66
2022/05/03 12:28:39;;;;;;;39.92;37.85;;;;;;;;;;5051989;28;20453;-67
2022/05/03 12:31:06;;;;;;;54.65;51.72;;;;;;;;;;5052346;28;20147;-68
2022/05/03 12:33:32;;;;;;;59.22;56.25;;;;;;;;;;5069307;28;20033;-67
2022/05/03 12:35:58;;;;;;;63.15;60.00;;;;;;;;;;5054804;28;20048;-67
2022/05/03 12:38:25;;;;;;;62.47;59.28;;;;;;;;;;5052262;28;20040;-66
2022/05/03 12:40:59;;;;;;;46.33;44.00;;;;;;;;;;5053542;28;20166;-64
2022/05/03 12:43:27;;;;;;;64.63;61.38;;;;;;;;;;5053918;28;20028;-61
2022/05/03 12:46:04;;;;;;;59.50;56.53;;;;;;;;;;5050686;28;20032;-66
2022/05/03 12:48:35;;;;;;;68.88;65.40;;;;;;;;;;5049982;28;20040;-65
2022/05/03 12:51:03;;;;;;;59.75;56.72;;;;;;;;;;5053086;28;20029;-67
2022/05/03 12:53:30;;;;;;;63.03;59.00;;;;;;;;;;5051965;28;20043;-66
2022/05/03 12:55:58;;;;;;;70.82;67.30;;;;;;;;;;5051376;28;20055;-66
2022/05/03 12:58:24;;;;;;;64.50;61.30;;;;;;;;;;5052681;28;20028;-65
2022/05/03 13:00:57;;;;;;;70.63;67.10;;;;;;;;;;5051826;28;20036;-67
2022/05/03 13:03:22;;;;;;;59.60;56.60;;;;;;;;;;5048845;28;20477;-65
2022/05/03 13:05:51;;;;;;;68.25;64.85;;;;;;;;;;5052042;28;20091;-66
2022/05/03 13:08:17;;;;;;;72.72;68.93;;;;;;;;;;5062089;28;20040;-66
2022/05/03 13:10:43;;;;;;;75.85;72.13;;;;;;;;;;5053439;28;20036;-65
2022/05/03 13:13:09;;;;;;;59.95;56.92;;;;;;;;;;5050082;28;20481;-64
2022/05/03 13:15:34;;;;;;;60.88;57.80;;;;;;;;;;5053337;28;20029;-62
2022/05/03 13:18:00;;;;;;;60.80;57.72;;;;;;;;;;5050131;28;20031;-64
2022/05/03 13:20:26;;;;;;;64.20;61.00;;;;;;;;;;5050543;28;20033;-65
2022/05/03 13:22:53;;;;;;;76.05;72.25;;;;;;;;;;5052415;28;20096;-65
2022/05/03 13:25:18;;;;;;;70.18;66.68;;;;;;;;;;5066607;28;20025;-64
2022/05/03 13:27:43;;;;;;;74.10;70.40;;;;;;;;;;5053075;28;20036;-63
2022/05/03 13:30:09;;;;;;;61.35;58.15;;;;;;;;;;5049375;28;20037;-63
2022/05/03 13:32:35;;;;;;;64.40;61.17;;;;;;;;;;5053900;28;20090;-64
2022/05/03 13:35:00;;;;;;;54.88;52.10;;;;;;;;;;5053409;28;20067;-65
2022/05/03 13:42:54;;;;;;;55.60;52.72;;;;;;;;;;5054667;28;20108;-62
2022/05/03 13:45:19;;;;;;;63.10;59.90;;;;;;;;;;5052598;28;20577;-62
2022/05/03 13:47:44;;;;;;;54.53;51.80;;;;;;;;;;5049715;28;20033;-64
2022/05/03 13:50:10;;;;;;;60.08;56.95;;;;;;;;;;5050905;28;20416;-63
2022/05/03 13:52:37;;;;;;;67.07;63.65;;;;;;;;;;5052319;28;20468;-62
2022/05/03 13:55:04;;;;;;;55.53;52.63;;;;;;;;;;5052388;28;20044;-61
2022/05/03 13:57:30;;;;;;;64.70;61.50;;;;;;;;;;5047861;28;20029;-63
2022/05/03 13:59:55;;;;;;;60.33;57.28;;;;;;;;;;5051426;28;20104;-63
2022/05/03 14:02:21;;;;;;;55.42;52.53;;;;;;;;;;5049391;28;20104;-62
2022/05/03 14:04:47;;;;;;;57.83;54.75;;;;;;;;;;5050783;28;20045;-62
2022/05/03 14:07:12;;;;;;;54.42;51.65;;;;;;;;;;5053352;28;20060;-63
2022/05/03 14:09:38;;;;;;;55.95;53.10;;;;;;;;;;5052408;28;20032;-62
2022/05/03 14:12:06;;;;;;;62.50;59.35;;;;;;;;;;5052700;28;20055;-63
2022/05/03 14:14:32;;;;;;;62.30;59.13;;;;;;;;;;5053980;28;20044;-62
2022/05/03 14:16:57;;;;;;;62.53;59.40;;;;;;;;;;5052118;28;20029;-62
2022/05/03 14:19:22;;;;;;;61.75;58.65;;;;;;;;;;5049163;28;20033;-63
2022/05/03 14:21:48;;;;;;;73.13;69.45;;;;;;;;;;5053196;28;20040;-59
2022/05/03 14:24:14;;;;;;;55.72;52.90;;;;;;;;;;5053875;28;20036;-63
2022/05/03 14:26:40;;;;;;;62.17;59.03;;;;;;;;;;5050045;28;20029;-60
2022/05/03 14:29:07;;;;;;;55.83;53.03;;;;;;;;;;5051426;28;20513;-63
2022/05/03 14:31:36;;;;;;;56.28;53.45;;;;;;;;;;5056957;28;20060;-63
2022/05/03 14:34:01;;;;;;;57.15;54.25;;;;;;;;;;5058998;28;20033;-63
2022/05/03 14:36:31;;;;;;;55.42;52.63;;;;;;;;;;5059673;28;20051;-63
2022/05/03 14:38:57;;;;;;;78.45;74.53;;;;;;;;;;5054608;28;20500;-62
2022/05/03 14:41:22;;;;;;;74.70;71.00;;;;;;;;;;5052605;28;20044;-62
2022/05/03 14:43:47;;;;;;;87.15;82.82;;;;;;;;;;5055824;28;20036;-62
2022/05/03 14:46:13;;;;;;;95.97;91.20;;;;;;;;;;5054623;28;20096;-60
2022/05/03 14:48:38;;;;;;;73.28;69.65;;;;;;;;;;5055740;28;20043;-60
2022/05/03 14:51:04;;;;;;;75.80;72.00;;;;;;;;;;5051157;28;20075;-60
2022/05/03 14:53:30;;;;;;;89.15;84.75;;;;;;;;;;5056568;28;20481;-60
2022/05/03 15:04:07;;;;;;;88.05;83.65;;;;;;;;;;5054744;28;20766;-59
2022/05/03 15:06:33;;;;;;;101.32;96.32;;;;;;;;;;5058363;28;20033;-60
2022/05/03 15:08:59;;;;;;;105.35;100.18;;;;;;;;;;5053203;28;20029;-59
2022/05/03 15:11:25;;;;;;;106.22;101.00;;;;;;;;;;5053672;28;20067;-59
2022/05/03 15:13:51;;;;;;;102.68;97.53;;;;;;;;;;5057391;28;20074;-59
2022/05/03 15:16:16;;;;;;;110.53;105.07;;;;;;;;;;5054237;28;20072;-59
2022/05/03 15:18:45;;;;;;;109.40;104.00;;;;;;;;;;5054302;28;20036;-59